createdAt,value
2019-01-18T00:00:55.800Z,2.90
2019-01-18T00:04:00.649Z,2.90
2019-01-18T00:07:05.542Z,2.80
2019-01-18T00:10:10.698Z,2.80
2019-01-18T00:13:15.501Z,2.70
2019-01-18T00:16:20.371Z,2.80
2019-01-18T00:19:25.206Z,2.70
2019-01-18T00:22:30.057Z,2.60
2019-01-18T00:25:34.888Z,2.60
2019-01-18T00:28:39.697Z,2.50
2019-01-18T00:31:44.535Z,2.60
2019-01-18T00:34:49.354Z,2.70
2019-01-18T00:37:54.174Z,2.50
2019-01-18T00:40:59.015Z,2.50
2019-01-18T00:44:03.959Z,2.30
2019-01-18T00:47:08.831Z,2.30
2019-01-18T00:50:16.308Z,2.50
2019-01-18T00:53:21.149Z,2.30
2019-01-18T00:56:25.954Z,2.30
2019-01-18T00:59:36.312Z,2.30
2019-01-18T01:02:37.345Z,2.40
2019-01-18T01:05:42.190Z,2.30
2019-01-18T01:08:48.071Z,2.50
2019-01-18T01:11:52.894Z,2.40
2019-01-18T01:14:57.729Z,2.40
2019-01-18T01:18:02.582Z,2.40
2019-01-18T01:21:07.409Z,2.50
2019-01-18T01:24:12.256Z,2.30
2019-01-18T01:27:17.695Z,2.30
2019-01-18T01:30:24.549Z,2.40
2019-01-18T01:33:29.384Z,2.30
2019-01-18T01:36:34.258Z,2.20
2019-01-18T01:39:40.113Z,2.00
2019-01-18T01:42:45.082Z,2.10
2019-01-18T01:45:49.926Z,2.00
2019-01-18T01:48:54.813Z,1.80
2019-01-18T01:51:59.711Z,1.70
2019-01-18T01:55:05.981Z,1.50
2019-01-18T01:58:10.819Z,1.50
2019-01-18T02:01:15.645Z,1.60
2019-01-18T02:04:20.477Z,1.60
2019-01-18T02:07:25.293Z,1.30
2019-01-18T02:10:30.133Z,1.30
2019-01-18T02:13:34.970Z,1.50
2019-01-18T02:16:39.793Z,1.30
2019-01-18T02:19:45.530Z,1.30
2019-01-18T02:22:50.993Z,1.30
2019-01-18T02:25:55.824Z,1.40
2019-01-18T02:29:01.152Z,1.00
2019-01-18T02:32:06.075Z,1.10
2019-01-18T02:35:11.008Z,1.20
2019-01-18T02:38:15.877Z,1.00
2019-01-18T02:41:20.761Z,1.20
2019-01-18T02:44:25.566Z,1.10
2019-01-18T02:47:30.400Z,1.20
2019-01-18T02:50:36.283Z,1.10
2019-01-18T02:53:41.208Z,0.90
2019-01-18T02:56:46.096Z,1.00
2019-01-18T02:59:50.911Z,0.90
2019-01-18T03:02:55.803Z,0.80
2019-01-18T03:06:00.747Z,0.90
2019-01-18T03:09:08.405Z,0.90
2019-01-18T03:12:13.266Z,1.00
2019-01-18T03:15:18.145Z,0.70
2019-01-18T03:18:22.996Z,0.80
2019-01-18T03:21:27.827Z,0.90
2019-01-18T03:24:32.712Z,0.90
2019-01-18T03:27:37.647Z,0.70
2019-01-18T03:30:42.538Z,0.80
2019-01-18T03:33:47.389Z,0.70
2019-01-18T03:36:52.184Z,0.70
2019-01-18T03:39:57.050Z,0.80
2019-01-18T03:43:01.857Z,0.90
2019-01-18T03:46:06.677Z,0.80
2019-01-18T03:49:11.498Z,0.90
2019-01-18T03:52:16.301Z,0.80
2019-01-18T03:55:21.194Z,0.80
2019-01-18T03:58:26.017Z,0.90
2019-01-18T04:04:42.968Z,0.60
2019-01-18T04:07:47.787Z,0.80
2019-01-18T04:10:52.618Z,0.90
2019-01-18T04:13:57.439Z,1.00
2019-01-18T04:17:02.297Z,0.90
2019-01-18T04:20:10.349Z,1.00
2019-01-18T04:23:15.186Z,1.00
2019-01-18T04:26:20.037Z,1.00
2019-01-18T04:29:24.953Z,1.00
2019-01-18T04:32:29.865Z,1.00
2019-01-18T04:35:34.678Z,1.10
2019-01-18T04:38:39.534Z,0.90
2019-01-18T04:41:44.331Z,1.30
2019-01-18T04:44:49.196Z,1.10
2019-01-18T04:47:54.022Z,1.10
2019-01-18T04:50:58.980Z,1.10
2019-01-18T04:54:04.266Z,1.10
2019-01-18T04:57:09.112Z,1.00
2019-01-18T05:00:31.105Z,0.90
2019-01-18T05:03:36.014Z,1.10
2019-01-18T05:06:40.921Z,0.80
2019-01-18T05:09:45.756Z,0.90
2019-01-18T05:12:50.598Z,0.90
2019-01-18T05:15:55.426Z,0.90
2019-01-18T05:19:00.266Z,1.00
2019-01-18T05:22:05.138Z,1.00
2019-01-18T05:25:12.067Z,0.80
2019-01-18T05:28:17.152Z,1.00
2019-01-18T05:31:21.969Z,0.90
2019-01-18T05:34:26.811Z,1.10
2019-01-18T05:37:31.654Z,1.10
2019-01-18T05:40:36.548Z,1.10
2019-01-18T05:43:41.392Z,1.00
2019-01-18T05:46:46.265Z,1.00
2019-01-18T05:49:51.126Z,0.80
2019-01-18T05:52:55.959Z,0.80
2019-01-18T05:56:00.795Z,0.70
2019-01-18T05:59:05.699Z,0.90
2019-01-18T06:02:10.539Z,0.90
2019-01-18T06:05:17.882Z,0.90
2019-01-18T06:08:22.687Z,0.80
2019-01-18T06:11:27.542Z,1.00
2019-01-18T06:14:32.390Z,1.10
2019-01-18T06:17:37.285Z,0.90
2019-01-18T06:20:42.157Z,0.90
2019-01-18T06:23:46.979Z,0.60
2019-01-18T06:26:51.849Z,0.80
2019-01-18T06:29:56.719Z,0.60
2019-01-18T06:33:01.549Z,0.90
2019-01-18T06:36:06.472Z,0.70
2019-01-18T06:39:11.315Z,0.60
2019-01-18T06:42:16.692Z,0.70
2019-01-18T06:45:24.347Z,0.70
2019-01-18T06:48:29.518Z,0.70
2019-01-18T06:51:34.360Z,0.40
2019-01-18T06:54:39.174Z,0.60
2019-01-18T06:57:44.017Z,0.70
2019-01-18T07:00:48.859Z,0.40
2019-01-18T07:03:53.682Z,0.50
2019-01-18T07:06:58.553Z,0.50
2019-01-18T07:10:07.454Z,0.40
2019-01-18T07:13:12.281Z,0.40
2019-01-18T07:16:17.142Z,0.50
2019-01-18T07:19:21.986Z,0.00
2019-01-18T07:22:26.843Z,0.20
2019-01-18T07:25:31.822Z,0.10
2019-01-18T07:28:36.654Z,0.30
2019-01-18T07:31:41.495Z,0.30
2019-01-18T07:34:46.354Z,0.30
2019-01-18T07:37:51.419Z,0.30
2019-01-18T07:40:56.400Z,0.20
2019-01-18T07:44:01.297Z,0.40
2019-01-18T07:47:06.119Z,0.40
2019-01-18T07:50:12.699Z,0.20
2019-01-18T07:53:17.542Z,0.20
2019-01-18T07:56:22.347Z,0.40
2019-01-18T07:59:27.196Z,0.40
2019-01-18T08:02:32.006Z,0.20
2019-01-18T08:05:36.850Z,0.20
2019-01-18T08:08:41.717Z,0.40
2019-01-18T08:11:46.546Z,0.30
2019-01-18T08:14:51.487Z,0.30
2019-01-18T08:17:56.953Z,0.70
2019-01-18T08:21:01.763Z,0.60
2019-01-18T08:24:06.618Z,0.70
2019-01-18T08:27:11.553Z,0.40
2019-01-18T08:30:21.612Z,0.40
2019-01-18T08:33:26.463Z,0.40
2019-01-18T08:36:31.361Z,0.70
2019-01-18T08:39:36.157Z,0.50
2019-01-18T08:42:41.017Z,0.50
2019-01-18T08:45:48.203Z,0.80
2019-01-18T08:48:53.114Z,0.80
2019-01-18T08:51:58.333Z,0.90
2019-01-18T08:55:03.206Z,1.00
2019-01-18T08:58:08.028Z,0.80
2019-01-18T09:01:12.882Z,1.40
2019-01-18T09:04:17.774Z,1.20
2019-01-18T09:07:22.597Z,1.10
2019-01-18T09:10:35.997Z,1.10
2019-01-18T09:13:40.878Z,1.20
2019-01-18T09:16:45.751Z,1.40
2019-01-18T09:19:50.586Z,1.50
2019-01-18T09:22:55.435Z,1.80
2019-01-18T09:26:00.250Z,1.80
2019-01-18T09:29:05.123Z,1.90
2019-01-18T09:32:10.005Z,1.80
2019-01-18T09:35:16.872Z,2.00
2019-01-18T09:38:22.657Z,1.70
2019-01-18T09:41:27.675Z,1.90
2019-01-18T09:44:32.581Z,1.90
2019-01-18T09:47:37.520Z,2.20
2019-01-18T09:50:42.363Z,2.20
2019-01-18T09:53:47.258Z,2.30
2019-01-18T09:56:52.131Z,2.40
2019-01-18T09:59:57.006Z,2.30
2019-01-18T10:03:02.718Z,2.70
2019-01-18T10:06:07.515Z,2.60
2019-01-18T10:09:12.366Z,3.10
2019-01-18T10:12:17.232Z,2.90
2019-01-18T10:15:27.722Z,2.90
2019-01-18T10:18:32.554Z,3.00
2019-01-18T10:21:37.386Z,3.00
2019-01-18T10:24:42.226Z,2.90
2019-01-18T10:27:47.453Z,2.80
2019-01-18T10:30:52.315Z,3.10
2019-01-18T10:33:57.151Z,3.00
2019-01-18T10:37:02.074Z,3.20
2019-01-18T10:40:10.020Z,3.00
2019-01-18T10:43:14.832Z,3.10
2019-01-18T10:46:19.687Z,3.00
2019-01-18T10:49:24.517Z,3.00
2019-01-18T10:52:29.337Z,3.30
2019-01-18T10:55:34.234Z,3.60
2019-01-18T10:58:39.252Z,3.50
2019-01-18T11:01:44.128Z,3.60
2019-01-18T11:04:48.975Z,3.60
2019-01-18T11:07:53.798Z,3.50
2019-01-18T11:10:58.631Z,3.50
2019-01-18T11:14:03.447Z,3.60
2019-01-18T11:17:08.312Z,3.60
2019-01-18T11:20:18.993Z,3.60
2019-01-18T11:23:23.856Z,3.90
2019-01-18T11:26:28.682Z,3.60
2019-01-18T11:29:33.519Z,3.60
2019-01-18T11:32:38.561Z,3.50
2019-01-18T11:35:43.396Z,3.30
2019-01-18T11:38:48.235Z,3.30
2019-01-18T11:41:53.111Z,3.70
2019-01-18T11:44:57.946Z,3.50
2019-01-18T11:48:18.489Z,3.50
2019-01-18T11:51:23.855Z,3.80
2019-01-18T11:54:28.710Z,3.70
2019-01-18T11:57:33.602Z,4.00
2019-01-18T12:00:38.520Z,3.60
2019-01-18T12:03:43.383Z,3.60
2019-01-18T12:06:48.212Z,3.60
2019-01-18T12:09:53.017Z,3.60
2019-01-18T12:12:57.843Z,3.50
2019-01-18T12:16:02.662Z,3.50
2019-01-18T12:19:07.498Z,3.40
2019-01-18T12:22:12.403Z,3.50
2019-01-18T12:25:18.026Z,3.30
2019-01-18T12:28:22.948Z,3.30
2019-01-18T12:31:28.053Z,3.10
2019-01-18T12:34:32.986Z,2.80
2019-01-18T12:37:37.907Z,3.20
2019-01-18T12:40:42.826Z,3.10
2019-01-18T12:43:47.663Z,3.10
2019-01-18T12:46:52.729Z,3.10
2019-01-18T12:49:57.598Z,3.20
2019-01-18T12:53:02.673Z,3.30
2019-01-18T12:56:07.654Z,3.30
2019-01-18T12:59:12.594Z,3.40
2019-01-18T13:02:17.484Z,3.30
2019-01-18T13:05:37.229Z,3.30
2019-01-18T13:08:42.074Z,3.30
2019-01-18T13:11:48.515Z,3.50
2019-01-18T13:14:57.236Z,3.30
2019-01-18T13:17:59.858Z,3.30
2019-01-18T13:21:05.154Z,3.10
2019-01-18T13:24:10.039Z,3.10
2019-01-18T13:27:14.876Z,3.40
2019-01-18T13:30:20.107Z,3.00
2019-01-18T13:33:24.943Z,3.30
2019-01-18T13:36:29.831Z,3.40
2019-01-18T13:39:34.654Z,3.40
2019-01-18T13:42:39.469Z,3.30
2019-01-18T13:45:44.347Z,3.20
2019-01-18T13:48:49.194Z,3.10
2019-01-18T13:51:54.009Z,3.10
2019-01-18T13:54:58.876Z,3.10
2019-01-18T13:58:03.753Z,3.10
2019-01-18T14:01:08.625Z,2.90
2019-01-18T14:04:13.521Z,2.80
2019-01-18T14:07:18.340Z,2.70
2019-01-18T14:10:26.523Z,2.90
2019-01-18T14:13:31.421Z,2.60
2019-01-18T14:16:36.292Z,2.70
2019-01-18T14:19:41.107Z,2.50
2019-01-18T14:22:45.942Z,2.60
2019-01-18T14:25:50.846Z,2.60
2019-01-18T14:28:55.710Z,2.60
2019-01-18T14:32:00.649Z,2.60
2019-01-18T14:35:06.422Z,2.60
2019-01-18T14:38:11.346Z,2.50
2019-01-18T14:41:16.170Z,2.60
2019-01-18T14:44:20.970Z,2.60
2019-01-18T14:47:25.789Z,2.70
2019-01-18T14:50:30.601Z,2.60
2019-01-18T14:53:35.429Z,2.70
2019-01-18T14:56:40.287Z,2.30
2019-01-18T14:59:45.190Z,2.50
2019-01-18T15:02:50.161Z,2.30
2019-01-18T15:05:55.030Z,2.50
2019-01-18T15:09:00.034Z,2.40
2019-01-18T15:12:05.013Z,2.40
2019-01-18T15:15:12.748Z,2.40
2019-01-18T15:18:17.561Z,2.30
2019-01-18T15:21:22.403Z,2.30
2019-01-18T15:24:27.282Z,2.40
2019-01-18T15:27:32.262Z,2.30
2019-01-18T15:30:37.106Z,2.40
2019-01-18T15:33:41.932Z,2.10
2019-01-18T15:36:46.766Z,2.50
2019-01-18T15:39:51.646Z,2.20
2019-01-18T15:42:58.381Z,2.40
2019-01-18T15:46:03.262Z,2.30
2019-01-18T15:49:08.239Z,2.40
2019-01-18T15:52:13.071Z,2.40
2019-01-18T15:55:17.943Z,2.10
2019-01-18T15:58:22.782Z,2.10
2019-01-18T16:01:27.706Z,2.30
2019-01-18T16:04:32.511Z,2.20
2019-01-18T16:07:37.329Z,2.30
2019-01-18T16:10:42.251Z,2.10
2019-01-18T16:13:47.103Z,2.30
2019-01-18T16:16:51.952Z,2.40
2019-01-18T16:19:56.839Z,2.50
2019-01-18T16:23:01.669Z,2.50
2019-01-18T16:26:06.692Z,2.30
2019-01-18T16:29:11.562Z,2.30
2019-01-18T16:32:16.396Z,2.40
2019-01-18T16:35:21.242Z,2.00
2019-01-18T16:38:26.590Z,2.50
2019-01-18T16:41:32.672Z,2.20
2019-01-18T16:44:38.019Z,2.30
2019-01-18T16:47:42.881Z,2.40
2019-01-18T16:50:48.132Z,2.30
2019-01-18T16:53:53.091Z,2.20
2019-01-18T16:56:58.109Z,2.30
2019-01-18T17:00:04.728Z,2.40
2019-01-18T17:03:10.461Z,2.30
2019-01-18T17:06:17.855Z,2.50
2019-01-18T17:09:23.642Z,2.30
2019-01-18T17:12:29.304Z,2.00
2019-01-18T17:15:34.455Z,2.30
2019-01-18T17:18:39.531Z,2.40
2019-01-18T17:21:44.673Z,2.00
2019-01-18T17:24:49.579Z,2.30
2019-01-18T17:27:54.559Z,2.50
2019-01-18T17:30:59.527Z,2.30
2019-01-18T17:34:04.516Z,2.20
2019-01-18T17:37:10.018Z,2.20
2019-01-18T17:40:21.141Z,2.40
2019-01-18T17:43:35.170Z,2.10
2019-01-18T17:47:03.946Z,2.20
2019-01-18T17:50:40.429Z,2.20
2019-01-18T17:53:54.259Z,2.40
2019-01-18T17:57:07.676Z,2.30
2019-01-18T18:00:30.117Z,2.30
2019-01-18T18:03:52.939Z,2.20
2019-01-18T18:07:17.344Z,1.90
2019-01-18T18:10:42.401Z,2.20
2019-01-18T18:13:53.452Z,2.00
2019-01-18T18:17:12.633Z,2.10
2019-01-18T18:20:39.894Z,2.20
2019-01-18T18:23:50.695Z,2.40
2019-01-18T18:27:19.178Z,2.20
2019-01-18T18:30:27.090Z,2.30
2019-01-18T18:33:50.927Z,2.40
2019-01-18T18:37:07.891Z,2.30
2019-01-18T18:40:34.070Z,2.30
2019-01-18T18:43:44.777Z,2.40
2019-01-18T18:46:58.339Z,2.30
2019-01-18T18:50:15.047Z,2.40
2019-01-18T18:53:31.963Z,2.30
2019-01-18T18:56:45.709Z,2.10
2019-01-18T19:00:10.683Z,2.40
2019-01-18T19:03:30.602Z,2.20
2019-01-18T19:06:51.404Z,2.40
2019-01-18T19:10:04.944Z,2.40
2019-01-18T19:13:34.331Z,2.20
2019-01-18T19:16:53.764Z,2.40
2019-01-18T19:20:13.824Z,2.20
2019-01-18T19:23:33.739Z,2.20
2019-01-18T19:26:47.721Z,2.40
2019-01-18T19:30:10.246Z,2.30
2019-01-18T19:33:18.160Z,2.40
2019-01-18T19:36:26.310Z,2.40
2019-01-18T19:39:34.282Z,2.50
2019-01-18T19:42:48.239Z,2.40
2019-01-18T19:46:08.055Z,2.70
2019-01-18T19:49:34.087Z,2.50
2019-01-18T19:52:53.752Z,2.50
2019-01-18T19:56:01.732Z,2.60
2019-01-18T19:59:15.476Z,2.40
2019-01-18T20:02:33.369Z,2.70
2019-01-18T20:05:44.113Z,2.60
2019-01-18T20:09:06.392Z,2.50
2019-01-18T20:12:26.498Z,2.60
2019-01-18T20:15:38.117Z,2.60
2019-01-18T20:18:57.993Z,2.50
2019-01-18T20:22:25.813Z,2.60
2019-01-18T20:25:46.964Z,2.50
2019-01-18T20:29:29.906Z,2.40
2019-01-18T20:32:40.205Z,2.50
2019-01-18T20:35:59.585Z,2.70
2019-01-18T20:39:16.343Z,2.70
2019-01-18T20:42:33.143Z,2.60
2019-01-18T20:46:00.595Z,2.70
2019-01-18T20:49:17.612Z,2.50
2019-01-18T20:52:31.221Z,2.70
2019-01-18T20:55:54.402Z,2.70
2019-01-18T20:59:14.056Z,2.60
2019-01-18T21:02:41.175Z,2.50
2019-01-18T21:05:55.096Z,2.60
2019-01-18T21:09:19.574Z,2.50
2019-01-18T21:12:30.155Z,2.50
2019-01-18T21:15:41.491Z,2.80
2019-01-18T21:19:09.334Z,2.70
2019-01-18T21:22:35.797Z,2.60
2019-01-18T21:25:44.625Z,2.60
2019-01-18T21:29:07.372Z,2.60
2019-01-18T21:32:20.459Z,2.60
2019-01-18T21:35:29.395Z,2.50
2019-01-18T21:39:10.905Z,2.60
2019-01-18T21:42:44.753Z,2.60
2019-01-18T21:46:01.933Z,2.70
2019-01-18T21:49:12.614Z,2.50
2019-01-18T21:52:32.407Z,2.70
2019-01-18T21:55:56.491Z,2.50
2019-01-18T21:59:07.389Z,2.40
2019-01-18T22:02:24.676Z,2.60
2019-01-18T22:05:49.372Z,2.60
2019-01-18T22:09:08.159Z,2.40
2019-01-18T22:12:25.092Z,2.40
2019-01-18T22:16:04.763Z,2.20
2019-01-18T22:19:36.810Z,2.40
2019-01-18T22:22:50.450Z,2.40
2019-01-18T22:26:12.852Z,2.40
2019-01-18T22:29:26.667Z,2.40
2019-01-18T22:32:34.588Z,2.50
2019-01-18T22:35:51.010Z,1.90
2019-01-18T22:39:14.124Z,2.20
2019-01-18T22:42:25.024Z,2.20
2019-01-18T22:45:44.697Z,1.90
2019-01-18T22:48:58.637Z,2.20
2019-01-18T22:52:21.431Z,2.20
2019-01-18T22:55:34.951Z,2.10
2019-01-18T22:59:00.896Z,2.20
2019-01-18T23:02:20.432Z,1.90
2019-01-18T23:05:43.518Z,2.10
2019-01-18T23:09:27.734Z,2.10
2019-01-18T23:12:47.524Z,2.10
2019-01-18T23:15:55.989Z,2.20
2019-01-18T23:19:15.686Z,2.20
2019-01-18T23:22:35.326Z,2.20
2019-01-18T23:25:55.202Z,2.20
2019-01-18T23:29:21.719Z,2.00
2019-01-18T23:32:38.200Z,2.20
2019-01-18T23:35:48.782Z,1.90
2019-01-18T23:39:24.061Z,2.20
2019-01-18T23:42:38.375Z,2.00
2019-01-18T23:45:49.258Z,2.00
2019-01-18T23:48:59.927Z,2.10
2019-01-18T23:52:25.873Z,2.20
2019-01-18T23:56:07.338Z,2.20
2019-01-18T23:59:27.311Z,2.20
